createdAt,value
2023-10-12T00:01:02.603Z,17
2023-10-12T00:03:33.362Z,15
2023-10-12T00:06:03.925Z,19
2023-10-12T00:08:34.714Z,17
2023-10-12T00:11:05.460Z,15
2023-10-12T00:13:35.952Z,18
2023-10-12T00:16:06.630Z,18
2023-10-12T00:18:37.098Z,17
2023-10-12T00:21:07.566Z,13
2023-10-12T00:23:38.341Z,17
2023-10-12T00:26:08.796Z,13
2023-10-12T00:28:39.994Z,13
2023-10-12T00:31:10.284Z,15
2023-10-12T00:33:41.223Z,15
2023-10-12T00:36:10.426Z,17
2023-10-12T00:38:40.602Z,13
2023-10-12T00:41:11.619Z,14
2023-10-12T00:43:42.541Z,15
2023-10-12T00:46:13.024Z,15
2023-10-12T00:48:43.634Z,13
2023-10-12T00:51:14.949Z,14
2023-10-12T00:53:45.441Z,13
2023-10-12T00:56:16.052Z,12
2023-10-12T00:58:46.601Z,12
2023-10-12T01:01:18.184Z,10
2023-10-12T01:03:46.721Z,15
2023-10-12T01:06:17.249Z,12
2023-10-12T01:08:46.501Z,19
2023-10-12T01:11:17.487Z,14
2023-10-12T01:13:48.356Z,14
2023-10-12T01:16:19.085Z,13
2023-10-12T01:18:49.752Z,9
2023-10-12T01:21:20.542Z,13
2023-10-12T01:23:50.916Z,9
2023-10-12T01:26:22.782Z,12
2023-10-12T01:28:53.999Z,12
2023-10-12T01:31:25.043Z,14
2023-10-12T01:33:54.149Z,19
2023-10-12T01:36:25.083Z,14
2023-10-12T01:38:55.969Z,12
2023-10-12T01:41:27.026Z,12
2023-10-12T01:43:57.694Z,12
2023-10-12T01:46:28.107Z,13
2023-10-12T01:48:58.781Z,13
2023-10-12T01:51:30.391Z,15
2023-10-12T01:54:02.263Z,12
2023-10-12T01:56:33.151Z,19
2023-10-12T01:59:04.224Z,14
2023-10-12T02:01:35.144Z,12
2023-10-12T02:04:05.850Z,11
2023-10-12T02:06:36.914Z,12
2023-10-12T02:09:07.875Z,12
2023-10-12T02:11:38.805Z,14
2023-10-12T02:14:09.552Z,12
2023-10-12T02:16:40.710Z,12
2023-10-12T02:19:11.182Z,11
2023-10-12T02:21:41.625Z,12
2023-10-12T02:24:12.048Z,16
2023-10-12T02:26:42.875Z,15
2023-10-12T02:29:13.950Z,16
2023-10-12T02:31:45.323Z,15
2023-10-12T02:34:15.635Z,13
2023-10-12T02:36:46.752Z,13
2023-10-12T02:39:17.566Z,10
2023-10-12T02:41:48.450Z,19
2023-10-12T02:44:19.265Z,19
2023-10-12T02:46:49.801Z,19
2023-10-12T02:49:20.764Z,13
2023-10-12T02:51:51.756Z,16
2023-10-12T02:54:22.297Z,13
2023-10-12T02:56:53.193Z,12
2023-10-12T02:59:24.645Z,14
2023-10-12T03:01:55.954Z,16
2023-10-12T03:04:26.684Z,15
2023-10-12T03:06:57.304Z,16
2023-10-12T03:09:27.826Z,17
2023-10-12T03:11:58.751Z,11
2023-10-12T03:14:29.327Z,11
2023-10-12T03:17:00.446Z,14
2023-10-12T03:19:31.172Z,15
2023-10-12T03:22:01.765Z,11
2023-10-12T03:24:32.836Z,16
2023-10-12T03:27:04.046Z,16
2023-10-12T03:29:34.644Z,13
2023-10-12T03:32:05.786Z,12
2023-10-12T03:34:35.435Z,17
2023-10-12T03:37:06.525Z,16
2023-10-12T03:39:36.695Z,16
2023-10-12T03:42:07.241Z,17
2023-10-12T03:44:38.004Z,13
2023-10-12T03:47:08.901Z,16
2023-10-12T03:49:39.889Z,14
2023-10-12T03:52:10.435Z,15
2023-10-12T03:54:41.054Z,12
2023-10-12T03:57:11.991Z,15
2023-10-12T03:59:43.285Z,17
2023-10-12T04:02:14.291Z,20
2023-10-12T04:04:45.108Z,18
2023-10-12T04:07:13.497Z,19
2023-10-12T04:09:44.693Z,16
2023-10-12T04:12:14.906Z,19
2023-10-12T04:14:45.658Z,23
2023-10-12T04:17:16.399Z,19
2023-10-12T04:19:46.966Z,22
2023-10-12T04:22:17.372Z,23
2023-10-12T04:24:48.449Z,15
2023-10-12T04:27:19.290Z,18
2023-10-12T04:29:50.125Z,24
2023-10-12T04:32:21.111Z,14
2023-10-12T04:34:52.186Z,17
2023-10-12T04:37:23.167Z,16
2023-10-12T04:39:53.613Z,17
2023-10-12T04:42:24.166Z,25
2023-10-12T04:44:54.951Z,16
2023-10-12T04:47:26.093Z,34
2023-10-12T04:49:56.694Z,32
2023-10-12T04:52:27.917Z,15
2023-10-12T04:54:58.431Z,28
2023-10-12T04:57:29.590Z,26
2023-10-12T04:59:59.982Z,26
2023-10-12T05:02:33.623Z,16
2023-10-12T05:05:01.720Z,16
2023-10-12T05:07:32.499Z,23
2023-10-12T05:10:03.736Z,20
2023-10-12T05:12:34.813Z,26
2023-10-12T05:15:06.008Z,23
2023-10-12T05:17:37.150Z,22
2023-10-12T05:20:07.832Z,25
2023-10-12T05:22:38.665Z,24
2023-10-12T05:25:09.581Z,28
2023-10-12T05:27:40.893Z,24
2023-10-12T05:30:11.233Z,28
2023-10-12T05:32:42.393Z,28
2023-10-12T05:35:13.285Z,30
2023-10-12T05:37:43.766Z,23
2023-10-12T05:40:14.671Z,20
2023-10-12T05:42:47.701Z,24
2023-10-12T05:45:16.384Z,30
2023-10-12T05:47:45.457Z,27
2023-10-12T05:50:15.974Z,25
2023-10-12T05:52:47.022Z,26
2023-10-12T05:55:17.175Z,25
2023-10-12T05:57:48.643Z,26
2023-10-12T06:00:19.608Z,29
2023-10-12T06:02:50.665Z,18
2023-10-12T06:05:21.729Z,24
2023-10-12T06:07:52.250Z,28
2023-10-12T06:10:22.728Z,20
2023-10-12T06:12:53.454Z,25
2023-10-12T06:15:23.844Z,19
2023-10-12T06:17:58.508Z,18
2023-10-12T06:20:29.473Z,24
2023-10-12T06:22:59.844Z,23
2023-10-12T06:25:30.414Z,27
2023-10-12T06:28:00.918Z,20
2023-10-12T06:30:31.667Z,16
2023-10-12T06:33:02.977Z,16
2023-10-12T06:35:34.092Z,20
2023-10-12T06:38:04.728Z,20
2023-10-12T06:40:39.054Z,24
2023-10-12T06:43:07.758Z,22
2023-10-12T06:45:38.496Z,23
2023-10-12T06:48:08.969Z,21
2023-10-12T06:50:39.624Z,21
2023-10-12T06:53:12.244Z,23
2023-10-12T06:55:40.647Z,29
2023-10-12T06:58:09.672Z,28
2023-10-12T07:00:38.555Z,25
2023-10-12T07:03:07.870Z,24
2023-10-12T07:05:38.293Z,44
2023-10-12T07:08:09.420Z,28
2023-10-12T07:10:40.531Z,23
2023-10-12T07:13:10.950Z,28
2023-10-12T07:15:41.957Z,22
2023-10-12T07:18:12.728Z,46
2023-10-12T07:20:43.772Z,26
2023-10-12T07:23:14.580Z,21
2023-10-12T07:25:45.642Z,32
2023-10-12T07:28:16.265Z,29
2023-10-12T07:30:46.743Z,25
2023-10-12T07:33:20.789Z,13
2023-10-12T07:35:51.691Z,22
2023-10-12T07:38:22.228Z,19
2023-10-12T07:40:52.728Z,22
2023-10-12T07:43:23.388Z,32
2023-10-12T07:45:53.877Z,21
2023-10-12T07:48:24.253Z,21
2023-10-12T07:50:54.838Z,25
2023-10-12T07:53:25.545Z,21
2023-10-12T07:55:57.104Z,20
2023-10-12T07:58:31.078Z,17
2023-10-12T08:01:01.513Z,25
2023-10-12T08:03:31.591Z,23
2023-10-12T08:06:02.101Z,17
2023-10-12T08:08:32.667Z,23
2023-10-12T08:11:02.936Z,20
2023-10-12T08:13:33.515Z,34
2023-10-12T08:16:04.365Z,21
2023-10-12T08:18:34.825Z,17
2023-10-12T08:21:05.957Z,22
2023-10-12T08:23:36.680Z,23
2023-10-12T08:28:38.532Z,18
2023-10-12T08:31:12.307Z,19
2023-10-12T08:33:42.775Z,21
2023-10-12T08:36:13.185Z,17
2023-10-12T08:38:43.827Z,19
2023-10-12T08:41:14.175Z,19
2023-10-12T08:43:45.430Z,19
2023-10-12T08:46:16.096Z,13
2023-10-12T08:48:46.487Z,23
2023-10-12T08:51:17.637Z,22
2023-10-12T08:53:48.206Z,20
2023-10-12T08:56:18.887Z,33
2023-10-12T08:58:49.398Z,24
2023-10-12T09:01:21.058Z,23
2023-10-12T09:03:51.504Z,24
2023-10-12T09:06:21.841Z,25
2023-10-12T09:08:50.953Z,26
2023-10-12T09:11:21.742Z,17
2023-10-12T09:13:52.312Z,16
2023-10-12T09:18:53.869Z,24
2023-10-12T09:21:24.478Z,29
2023-10-12T09:23:55.387Z,16
2023-10-12T09:26:29.272Z,18
2023-10-12T09:28:59.808Z,25
2023-10-12T09:31:30.264Z,19
2023-10-12T09:34:00.600Z,20
2023-10-12T09:36:32.549Z,17
2023-10-12T09:39:03.626Z,16
2023-10-12T09:41:34.570Z,18
2023-10-12T09:44:05.565Z,17
2023-10-12T09:46:35.906Z,19
2023-10-12T09:49:06.397Z,19
2023-10-12T09:51:37.177Z,20
2023-10-12T09:54:07.656Z,17
2023-10-12T09:56:38.027Z,14
2023-10-12T09:59:08.718Z,15
2023-10-12T10:01:39.372Z,19
2023-10-12T10:04:10.325Z,20
2023-10-12T10:06:40.869Z,21
2023-10-12T10:09:11.869Z,20
2023-10-12T10:11:42.615Z,20
2023-10-12T10:14:13.013Z,15
2023-10-12T10:16:43.181Z,18
2023-10-12T10:19:13.617Z,21
2023-10-12T10:21:44.992Z,22
2023-10-12T10:24:16.157Z,18
2023-10-12T10:26:50.051Z,23
2023-10-12T10:29:21.501Z,19
2023-10-12T10:31:52.359Z,14
2023-10-12T10:34:23.608Z,18
2023-10-12T10:36:55.022Z,20
2023-10-12T10:39:25.517Z,20
2023-10-12T10:41:56.169Z,23
2023-10-12T10:44:27.036Z,17
2023-10-12T10:46:57.647Z,19
2023-10-12T10:49:33.571Z,21
2023-10-12T10:51:58.561Z,17
2023-10-12T10:54:28.876Z,17
2023-10-12T10:56:59.540Z,19
2023-10-12T10:59:30.497Z,22
2023-10-12T11:02:02.055Z,24
2023-10-12T11:04:32.515Z,16
2023-10-12T11:07:03.094Z,17
2023-10-12T11:09:34.002Z,18
2023-10-12T11:12:04.483Z,16
2023-10-12T11:14:36.080Z,14
2023-10-12T11:17:06.744Z,23
2023-10-12T11:19:37.411Z,23
2023-10-12T11:22:09.277Z,17
2023-10-12T11:24:40.315Z,16
2023-10-12T11:27:10.982Z,17
2023-10-12T11:29:41.529Z,20
2023-10-12T11:32:12.225Z,16
2023-10-12T11:34:43.124Z,16
2023-10-12T11:37:13.655Z,16
2023-10-12T11:39:44.198Z,23
2023-10-12T11:42:13.372Z,18
2023-10-12T11:44:44.200Z,15
2023-10-12T11:47:15.118Z,20
2023-10-12T11:49:45.716Z,17
2023-10-12T11:52:16.863Z,18
2023-10-12T11:54:47.760Z,14
2023-10-12T11:57:18.177Z,19
2023-10-12T11:59:49.403Z,16
2023-10-12T12:02:20.408Z,19
2023-10-12T12:05:05.712Z,16
2023-10-12T12:07:21.825Z,17
2023-10-12T12:09:52.352Z,19
2023-10-12T12:12:22.748Z,20
2023-10-12T12:14:53.158Z,23
2023-10-12T12:17:24.368Z,14
2023-10-12T12:19:55.189Z,16
2023-10-12T12:22:26.131Z,16
2023-10-12T12:24:57.566Z,14
2023-10-12T12:27:28.645Z,16
2023-10-12T12:30:14.251Z,18
2023-10-12T12:32:30.735Z,16
2023-10-12T12:35:01.132Z,15
2023-10-12T12:37:31.665Z,13
2023-10-12T12:40:02.472Z,12
2023-10-12T12:42:33.232Z,16
2023-10-12T12:45:06.148Z,12
2023-10-12T12:47:36.749Z,16
2023-10-12T12:50:07.224Z,17
2023-10-12T12:52:40.071Z,16
2023-10-12T12:55:09.196Z,15
2023-10-12T12:57:40.148Z,16
2023-10-12T13:00:11.403Z,14
2023-10-12T13:02:42.456Z,12
2023-10-12T13:05:11.550Z,19
2023-10-12T13:07:42.772Z,20
2023-10-12T13:10:13.486Z,20
2023-10-12T13:12:46.822Z,15
2023-10-12T13:15:14.818Z,19
2023-10-12T13:17:45.355Z,17
2023-10-12T13:20:16.516Z,10
2023-10-12T13:22:47.070Z,12
2023-10-12T13:25:18.296Z,9
2023-10-12T13:27:49.260Z,12
2023-10-12T13:30:20.013Z,12
2023-10-12T13:32:50.938Z,14
2023-10-12T13:35:19.949Z,20
2023-10-12T13:37:50.084Z,8
2023-10-12T13:40:21.016Z,14
2023-10-12T13:42:51.748Z,17
2023-10-12T13:45:22.625Z,16
2023-10-12T13:47:53.675Z,18
2023-10-12T13:50:24.119Z,17
2023-10-12T13:52:54.633Z,15
2023-10-12T13:55:25.542Z,16
2023-10-12T13:57:56.012Z,15
2023-10-12T14:00:26.373Z,16
2023-10-12T14:02:57.211Z,16
2023-10-12T14:05:28.400Z,38
2023-10-12T14:07:58.822Z,32
2023-10-12T14:10:28.901Z,33
2023-10-12T14:12:59.403Z,23
2023-10-12T14:15:30.520Z,20
2023-10-12T14:18:01.509Z,16
2023-10-12T14:20:31.930Z,17
2023-10-12T14:23:02.865Z,19
2023-10-12T14:25:33.496Z,19
2023-10-12T14:28:03.758Z,19
2023-10-12T14:30:34.725Z,22
2023-10-12T14:33:05.694Z,25
2023-10-12T14:35:36.627Z,28
2023-10-12T14:38:07.196Z,21
2023-10-12T14:40:38.470Z,44
2023-10-12T14:43:08.759Z,28
2023-10-12T14:45:39.720Z,30
2023-10-12T14:48:10.179Z,37
2023-10-12T14:50:40.979Z,27
2023-10-12T14:53:11.340Z,32
2023-10-12T14:55:41.959Z,48
2023-10-12T14:58:12.330Z,64
2023-10-12T15:00:42.816Z,45
2023-10-12T15:03:13.226Z,46
2023-10-12T15:05:42.343Z,42
2023-10-12T15:08:13.207Z,45
2023-10-12T15:10:43.905Z,33
2023-10-12T15:13:14.217Z,29
2023-10-12T15:15:45.969Z,31
2023-10-12T15:18:15.194Z,32
2023-10-12T15:20:45.845Z,29
2023-10-12T15:23:16.278Z,25
2023-10-12T15:25:46.829Z,31
2023-10-12T15:28:17.325Z,29
2023-10-12T15:30:47.801Z,24
2023-10-12T15:33:18.570Z,27
2023-10-12T15:35:51.899Z,32
2023-10-12T15:38:22.277Z,27
2023-10-12T15:40:53.234Z,26
2023-10-12T15:43:23.822Z,36
2023-10-12T15:45:54.727Z,32
2023-10-12T15:48:25.523Z,34
2023-10-12T15:50:55.984Z,24
2023-10-12T15:53:26.799Z,24
2023-10-12T15:55:55.746Z,28
2023-10-12T15:58:24.723Z,28
2023-10-12T16:00:55.697Z,24
2023-10-12T16:03:26.607Z,22
2023-10-12T16:05:57.481Z,24
2023-10-12T16:08:27.828Z,25
2023-10-12T16:10:56.941Z,27
2023-10-12T16:13:28.239Z,26
2023-10-12T16:15:59.074Z,36
2023-10-12T16:18:29.664Z,32
2023-10-12T16:21:00.051Z,33
2023-10-12T16:23:33.732Z,45
2023-10-12T16:26:04.435Z,48
2023-10-12T16:28:34.665Z,50
2023-10-12T16:31:07.406Z,35
2023-10-12T16:33:35.605Z,37
2023-10-12T16:36:06.607Z,40
2023-10-12T16:38:37.601Z,34
2023-10-12T16:41:07.706Z,40
2023-10-12T16:43:38.152Z,38
2023-10-12T16:46:07.047Z,43
2023-10-12T16:48:37.164Z,45
2023-10-12T16:51:07.583Z,48
2023-10-12T16:53:37.939Z,42
2023-10-12T16:56:09.583Z,44
2023-10-12T16:58:42.967Z,47
2023-10-12T17:01:13.315Z,44
2023-10-12T17:03:44.076Z,42
2023-10-12T17:06:14.337Z,46
2023-10-12T17:08:45.096Z,48
2023-10-12T17:11:15.067Z,52
2023-10-12T17:13:45.379Z,56
2023-10-12T17:16:15.765Z,63
2023-10-12T17:18:46.056Z,52
2023-10-12T17:21:16.455Z,51
2023-10-12T17:23:46.574Z,53
2023-10-12T17:26:16.780Z,45
2023-10-12T17:28:47.576Z,48
2023-10-12T17:31:18.673Z,44
2023-10-12T17:33:48.783Z,41
2023-10-12T17:36:19.138Z,43
2023-10-12T17:38:49.845Z,44
2023-10-12T17:41:20.512Z,40
2023-10-12T17:43:50.639Z,43
2023-10-12T17:46:21.114Z,45
2023-10-12T17:48:51.446Z,49
2023-10-12T17:51:21.748Z,51
2023-10-12T17:53:52.902Z,42
2023-10-12T17:56:21.914Z,43
2023-10-12T17:58:52.643Z,45
2023-10-12T18:01:23.493Z,49
2023-10-12T18:03:54.078Z,61
2023-10-12T18:06:24.313Z,51
2023-10-12T18:08:54.938Z,51
2023-10-12T18:11:25.255Z,66
2023-10-12T18:13:55.275Z,49
2023-10-12T18:16:25.989Z,51
2023-10-12T18:18:56.294Z,50
2023-10-12T18:21:26.615Z,51
2023-10-12T18:23:57.045Z,51
2023-10-12T18:26:27.313Z,49
2023-10-12T18:28:58.880Z,48
2023-10-12T18:31:29.186Z,52
2023-10-12T18:34:00.053Z,48
2023-10-12T18:36:30.372Z,44
2023-10-12T18:39:00.598Z,47
2023-10-12T18:41:31.273Z,88
2023-10-12T18:44:01.688Z,53
2023-10-12T18:46:32.137Z,55
2023-10-12T18:49:02.964Z,53
2023-10-12T18:51:33.733Z,49
2023-10-12T18:54:04.517Z,44
2023-10-12T18:56:34.971Z,45
2023-10-12T18:59:05.691Z,49
2023-10-12T19:01:34.556Z,48
2023-10-12T19:04:05.024Z,56
2023-10-12T19:06:35.018Z,46
2023-10-12T19:09:05.417Z,60
2023-10-12T19:11:36.040Z,59
2023-10-12T19:14:06.300Z,64
2023-10-12T19:16:35.311Z,72
2023-10-12T19:19:05.722Z,69
2023-10-12T19:21:36.358Z,69
2023-10-12T19:24:06.946Z,71
2023-10-12T19:26:37.049Z,76
2023-10-12T19:29:05.953Z,61
2023-10-12T19:31:36.468Z,52
2023-10-12T19:34:06.843Z,52
2023-10-12T19:36:37.080Z,49
2023-10-12T19:39:07.804Z,47
2023-10-12T19:41:38.941Z,50
2023-10-12T19:44:09.241Z,52
2023-10-12T19:46:40.331Z,43
2023-10-12T19:49:11.198Z,48
2023-10-12T19:51:41.826Z,44
2023-10-12T19:54:11.968Z,47
2023-10-12T19:56:42.255Z,48
2023-10-12T19:59:12.632Z,60
2023-10-12T20:01:43.069Z,47
2023-10-12T20:04:13.899Z,49
2023-10-12T20:06:42.724Z,43
2023-10-12T20:09:13.143Z,41
2023-10-12T20:11:43.409Z,41
2023-10-12T20:14:14.009Z,45
2023-10-12T20:16:44.718Z,43
2023-10-12T20:19:15.041Z,43
2023-10-12T20:21:45.863Z,45
2023-10-12T20:24:16.201Z,53
2023-10-12T20:26:47.461Z,52
2023-10-12T20:29:18.050Z,49
2023-10-12T20:31:48.376Z,51
2023-10-12T20:34:19.022Z,52
2023-10-12T20:36:49.287Z,55
2023-10-12T20:39:19.877Z,44
2023-10-12T20:41:48.828Z,56
2023-10-12T20:44:19.945Z,45
2023-10-12T20:46:50.485Z,39
2023-10-12T20:49:21.073Z,41
2023-10-12T20:51:51.048Z,45
2023-10-12T20:54:21.416Z,44
2023-10-12T20:56:51.912Z,48
2023-10-12T20:59:23.664Z,42
2023-10-12T21:01:54.212Z,42
2023-10-12T21:04:24.844Z,40
2023-10-12T21:06:55.474Z,42
2023-10-12T21:09:25.373Z,43
2023-10-12T21:11:55.401Z,43
2023-10-12T21:14:26.520Z,46
2023-10-12T21:16:57.058Z,42
2023-10-12T21:19:27.550Z,38
2023-10-12T21:21:58.662Z,38
2023-10-12T21:24:28.983Z,44
2023-10-12T21:26:58.960Z,44
2023-10-12T21:29:28.870Z,39
2023-10-12T21:31:59.853Z,44
2023-10-12T21:34:30.811Z,43
2023-10-12T21:37:01.832Z,44
2023-10-12T21:39:32.043Z,50
2023-10-12T21:42:02.472Z,38
2023-10-12T21:44:33.220Z,43
2023-10-12T21:47:02.440Z,37
2023-10-12T21:49:33.551Z,36
2023-10-12T21:52:04.321Z,37
2023-10-12T21:54:34.701Z,45
2023-10-12T21:57:05.429Z,51
2023-10-12T21:59:36.293Z,41
2023-10-12T22:02:15.198Z,49
2023-10-12T22:04:38.518Z,42
2023-10-12T22:07:09.376Z,34
2023-10-12T22:09:39.911Z,41
2023-10-12T22:12:10.281Z,43
2023-10-12T22:14:40.713Z,45
2023-10-12T22:17:11.029Z,45
2023-10-12T22:19:41.449Z,44
2023-10-12T22:22:12.158Z,56
2023-10-12T22:24:43.005Z,45
2023-10-12T22:27:14.725Z,50
2023-10-12T22:29:44.020Z,45
2023-10-12T22:32:14.373Z,39
2023-10-12T22:34:44.716Z,42
2023-10-12T22:37:15.214Z,45
2023-10-12T22:39:45.911Z,46
2023-10-12T22:42:16.529Z,42
2023-10-12T22:44:47.291Z,48
2023-10-12T22:47:18.346Z,39
2023-10-12T22:49:49.150Z,46
2023-10-12T22:52:19.226Z,43
2023-10-12T22:54:50.592Z,50
2023-10-12T22:57:21.644Z,51
2023-10-12T22:59:52.138Z,48
2023-10-12T23:02:22.998Z,41
2023-10-12T23:04:54.560Z,48
2023-10-12T23:07:25.799Z,44
2023-10-12T23:09:56.168Z,46
2023-10-12T23:12:26.997Z,42
2023-10-12T23:14:57.553Z,40
2023-10-12T23:17:28.472Z,40
2023-10-12T23:19:59.032Z,41
2023-10-12T23:22:29.577Z,38
2023-10-12T23:25:00.123Z,37
2023-10-12T23:27:33.416Z,40
2023-10-12T23:30:01.364Z,43
2023-10-12T23:32:31.637Z,44
2023-10-12T23:35:02.521Z,36
2023-10-12T23:37:33.808Z,53
2023-10-12T23:40:04.202Z,42
2023-10-12T23:42:34.889Z,45
2023-10-12T23:45:05.546Z,41
2023-10-12T23:47:36.456Z,43
2023-10-12T23:50:07.773Z,39
2023-10-12T23:52:38.600Z,39
2023-10-12T23:55:09.003Z,42
2023-10-12T23:57:39.446Z,41
